Time;durP1;ratioP1;P1;durP2;ratioP2;P2;SDS_P1;SDS_P2;PMS_P1;PMS_P2;Temp;Humidity;BMP_temperature;BMP_pressure;BME280_temperature;BME280_humidity;BME280_pressure;Samples;Min_cycle;Max_cycle;Signal;HPM_P1;HPM_P2
2022/10/28 00:01:26;;;;;;;;;;;;;;;-148.88;99.79;75752.84;5059339;28;19947;-76
2022/10/28 00:04:00;;;;;;;;;;;;;;;-148.88;99.78;75746.75;5059614;28;19909;-76
2022/10/28 00:06:27;;;;;;;;;;;;;;;-148.88;99.96;75752.84;5059465;28;19978;-76
2022/10/28 00:08:52;;;;;;;;;;;;;;;-148.88;100.00;75754.88;5059582;28;19966;-76
2022/10/28 00:11:19;;;;;;;;;;;;;;;-148.88;99.98;75754.88;5057943;28;19908;-76
2022/10/28 00:13:45;;;;;;;;;;;;;;;-148.88;99.86;75760.97;5059258;28;19913;-76
2022/10/28 00:16:15;;;;;;;;;;;;;;;-148.88;99.74;75752.84;5059369;28;19962;-76
2022/10/28 00:18:40;;;;;;;;;;;;;;;-148.88;99.71;75756.91;5059138;28;19920;-76
2022/10/28 00:21:07;;;;;;;;;;;;;;;-148.88;99.78;75744.72;5059138;28;19938;-76
2022/10/28 00:23:33;;;;;;;;;;;;;;;-148.88;100.00;75740.66;5059149;28;19913;-76
2022/10/28 00:26:05;;;;;;;;;;;;;;;-148.88;100.00;75736.59;5059118;28;19991;-76
2022/10/28 00:28:30;;;;;;;;;;;;;;;-148.88;100.00;75728.47;5059441;28;19909;-76
2022/10/28 00:31:01;;;;;;;;;;;;;;;-148.88;100.00;75732.53;5056977;28;19908;-76
2022/10/28 00:33:26;;;;;;;;;;;;;;;-148.88;100.00;75765.03;5056287;28;19923;-76
2022/10/28 00:35:51;;;;;;;;;;;;;;;-148.88;100.00;75769.09;5055938;28;19909;-76
2022/10/28 00:38:16;;;;;;;;;;;;;;;-148.88;100.00;75765.03;5055786;28;19913;-76
2022/10/28 00:40:42;;;;;;;;;;;;;;;-148.88;100.00;75777.22;5055700;28;20454;-76
2022/10/28 00:43:10;;;;;;;;;;;;;;;-148.88;100.00;75781.28;5055682;28;19924;-76
2022/10/28 00:45:35;;;;;;;;;;;;;;;-148.88;100.00;75777.22;5055725;28;19909;-76
2022/10/28 00:48:01;;;;;;;;;;;;;;;-148.88;100.00;75781.28;5055715;28;20359;-76
2022/10/28 00:50:42;;;;;;;;;;;;;;;-148.88;100.00;75781.28;5055515;28;19908;-76
2022/10/28 00:53:14;;;;;;;;;;;;;;;-148.88;100.00;75789.41;5055570;28;19908;-76
2022/10/28 00:55:40;;;;;;;;;;;;;;;-148.88;100.00;75781.28;5055518;28;19908;-76
2022/10/28 00:58:07;;;;;;;;;;;;;;;-148.88;100.00;75777.22;5055433;28;19962;-75
2022/10/28 01:00:32;;;;;;;;;;;;;;;-148.88;100.00;75781.28;5054046;28;19916;-76
2022/10/28 01:02:58;;;;;;;;;;;;;;;-148.88;100.00;75777.22;5054191;28;19909;-75
2022/10/28 01:05:25;;;;;;;;;;;;;;;-148.88;100.00;75771.13;5054126;28;20322;-76
2022/10/28 01:07:51;;;;;;;;;;;;;;;-148.88;100.00;75773.16;5055278;28;19909;-75
2022/10/28 01:10:17;;;;;;;;;;;;;;;-148.88;100.00;75769.09;5055109;28;19952;-76
2022/10/28 01:12:42;;;;;;;;;;;;;;;-148.88;100.00;75767.06;5055118;28;20445;-76
2022/10/28 01:15:21;;;;;;;;;;;;;;;-148.88;100.00;75760.97;5055128;28;19982;-76
2022/10/28 01:17:46;;;;;;;;;;;;;;;-148.88;100.00;75754.88;5055081;28;19913;-76
2022/10/28 01:20:24;;;;;;;;;;;;;;;-148.88;100.00;75754.88;5053474;28;19918;-75
2022/10/28 01:23:07;;;;;;;;;;;;;;;-148.88;100.00;75746.75;5053815;28;19912;-76
2022/10/28 01:25:33;;;;;;;;;;;;;;;-148.88;100.00;75748.78;5054979;28;20325;-76
2022/10/28 01:27:58;;;;;;;;;;;;;;;-148.88;100.00;75744.72;5055179;28;19909;-76
2022/10/28 01:30:25;;;;;;;;;;;;;;;-148.88;100.00;75738.63;5054768;28;19912;-75
2022/10/28 01:32:58;;;;;;;;;;;;;;;-148.88;100.00;75740.66;5055165;28;20344;-75
2022/10/28 01:35:35;;;;;;;;;;;;;;;-148.88;100.00;75736.59;5055037;28;19928;-75
2022/10/28 01:38:18;;;;;;;;;;;;;;;-148.88;100.00;75736.59;5055044;28;19959;-75
2022/10/28 01:40:49;;;;;;;;;;;;;;;-148.88;100.00;75732.53;5054993;28;19908;-75
2022/10/28 01:43:19;;;;;;;;;;;;;;;-148.88;100.00;75732.53;5054438;28;19912;-76
2022/10/28 01:45:50;;;;;;;;;;;;;;;-148.88;100.00;75736.59;5054519;28;19912;-76
2022/10/28 01:48:18;;;;;;;;;;;;;;;-148.88;100.00;75736.59;5053344;28;19996;-76
2022/10/28 01:50:43;;;;;;;;;;;;;;;-148.88;100.00;75736.59;5054444;28;19909;-76
2022/10/28 01:53:11;;;;;;;;;;;;;;;-148.88;100.00;75732.53;5054748;28;20008;-76
2022/10/28 01:55:39;;;;;;;;;;;;;;;-148.88;100.00;75740.66;5054453;28;19909;-76
2022/10/28 01:58:06;;;;;;;;;;;;;;;-148.88;100.00;75734.56;5053038;28;20019;-76
2022/10/28 02:00:34;;;;;;;;;;;;;;;-148.88;100.00;75732.53;5053041;28;19908;-76
2022/10/28 02:02:59;;;;;;;;;;;;;;;-148.88;100.00;75724.41;5054587;28;19909;-76
2022/10/28 02:05:34;;;;;;;;;;;;;;;-148.88;100.00;75728.47;5054140;28;19909;-75
2022/10/28 02:08:03;;;;;;;;;;;;;;;-148.88;100.00;75726.44;5054064;28;19909;-76
2022/10/28 02:10:32;;;;;;;;;;;;;;;-148.88;100.00;75722.38;5052775;28;19913;-76
2022/10/28 02:13:01;;;;;;;;;;;;;;;-148.88;100.00;75720.34;5054582;28;19996;-75
2022/10/28 02:15:38;;;;;;;;;;;;;;;-148.88;100.00;75716.28;5054256;28;19951;-76
2022/10/28 02:18:21;;;;;;;;;;;;;;;-148.88;100.00;75710.19;5052716;28;19913;-76
2022/10/28 02:20:46;;;;;;;;;;;;;;;-148.88;100.00;75712.22;5052366;28;19960;-76
2022/10/28 02:23:26;;;;;;;;;;;;;;;-148.88;100.00;75702.06;5054146;28;19915;-76
2022/10/28 02:25:55;;;;;;;;;;;;;;;-148.88;100.00;75708.16;5054159;28;20329;-76
2022/10/28 02:28:30;;;;;;;;;;;;;;;-148.88;100.00;75706.13;5053759;28;19908;-76
2022/10/28 02:31:09;;;;;;;;;;;;;;;-148.88;100.00;75702.06;5053759;28;19913;-76
2022/10/28 02:33:36;;;;;;;;;;;;;;;-148.88;100.00;75708.16;5053738;28;19939;-76
2022/10/28 02:36:12;;;;;;;;;;;;;;;-148.88;100.00;75702.06;5053745;28;19908;-76
2022/10/28 02:38:57;;;;;;;;;;;;;;;-148.88;100.00;75698.00;5053530;28;19913;-76
2022/10/28 02:41:25;;;;;;;;;;;;;;;-148.88;100.00;75695.97;5053569;28;19913;-76
2022/10/28 02:43:53;;;;;;;;;;;;;;;-148.88;100.00;75695.97;5053790;28;19931;-75
2022/10/28 02:46:18;;;;;;;;;;;;;;;-148.88;100.00;75698.00;5053505;28;19948;-76
2022/10/28 02:48:46;;;;;;;;;;;;;;;-148.88;100.00;75695.97;5052161;28;20089;-75
2022/10/28 02:51:14;;;;;;;;;;;;;;;-148.88;100.00;75700.03;5053293;28;19912;-75
2022/10/28 02:53:58;;;;;;;;;;;;;;;-148.88;100.00;75693.94;5053233;28;20362;-76
2022/10/28 02:56:23;;;;;;;;;;;;;;;-148.88;100.00;75695.97;5051979;28;20291;-76
2022/10/28 02:58:48;;;;;;;;;;;;;;;-148.88;100.00;75693.94;5053481;28;19919;-76
2022/10/28 03:01:14;;;;;;;;;;;;;;;-148.88;100.00;75695.97;5053697;28;19962;-76
2022/10/28 03:03:39;;;;;;;;;;;;;;;-148.88;100.00;75691.91;5053155;28;19909;-76
2022/10/28 03:06:05;;;;;;;;;;;;;;;-148.88;100.00;75685.81;5053231;28;19912;-76
2022/10/28 03:08:30;;;;;;;;;;;;;;;-148.88;100.00;75685.81;5053118;28;19908;-76
2022/10/28 03:10:55;;;;;;;;;;;;;;;-148.88;100.00;75698.00;5053226;28;19919;-76
2022/10/28 03:13:20;;;;;;;;;;;;;;;-148.88;100.00;75702.06;5051835;28;19925;-76
2022/10/28 03:15:46;;;;;;;;;;;;;;;-148.88;100.00;75708.16;5053394;28;20336;-76
2022/10/28 03:18:11;;;;;;;;;;;;;;;-148.88;100.00;75712.22;5052957;28;19919;-75
2022/10/28 03:20:36;;;;;;;;;;;;;;;-148.88;100.00;75712.22;5052837;28;19996;-75
2022/10/28 03:23:01;;;;;;;;;;;;;;;-148.88;100.00;75716.28;5053029;28;19909;-76
2022/10/28 03:25:26;;;;;;;;;;;;;;;-148.88;100.00;75714.25;5053239;28;19963;-75
2022/10/28 03:27:52;;;;;;;;;;;;;;;-148.88;100.00;75720.34;5053012;28;20294;-75
2022/10/28 03:30:17;;;;;;;;;;;;;;;-148.88;100.00;75718.31;5052944;28;20006;-76
2022/10/28 03:32:43;;;;;;;;;;;;;;;-148.88;100.00;75724.41;5053568;28;19915;-76
2022/10/28 03:35:08;;;;;;;;;;;;;;;-148.88;100.00;75728.47;5053012;28;19915;-76
2022/10/28 03:37:33;;;;;;;;;;;;;;;-148.88;100.00;75728.47;5052913;28;19923;-76
2022/10/28 03:40:01;;;;;;;;;;;;;;;-148.88;100.00;75724.41;5053218;28;19908;-76
2022/10/28 03:42:26;;;;;;;;;;;;;;;-148.88;100.00;75724.41;5052995;28;19908;-77
2022/10/28 03:44:52;;;;;;;;;;;;;;;-148.88;100.00;75724.41;5051675;28;19916;-76
2022/10/28 03:47:17;;;;;;;;;;;;;;;-148.88;100.00;75714.25;5053235;28;19909;-76
2022/10/28 03:49:42;;;;;;;;;;;;;;;-148.88;100.00;75714.25;5051849;28;19917;-76
2022/10/28 03:52:08;;;;;;;;;;;;;;;-148.88;100.00;75708.16;5052817;28;19932;-76
2022/10/28 03:54:33;;;;;;;;;;;;;;;-148.88;100.00;75700.03;5054532;28;19913;-79
2022/10/28 03:56:58;;;;;;;;;;;;;;;-148.88;100.00;75698.00;5055141;28;19919;-77
2022/10/28 03:59:23;;;;;;;;;;;;;;;-148.88;100.00;75695.97;5052823;28;19913;-77
2022/10/28 04:01:49;;;;;;;;;;;;;;;-148.88;100.00;75695.97;5051443;28;19912;-77
2022/10/28 04:04:14;;;;;;;;;;;;;;;-148.88;100.00;75691.91;5052984;28;19948;-77
2022/10/28 04:06:39;;;;;;;;;;;;;;;-148.88;100.00;75691.91;5052998;28;19915;-77
2022/10/28 04:09:04;;;;;;;;;;;;;;;-148.88;100.00;75687.84;5056650;28;19912;-77
2022/10/28 04:11:29;;;;;;;;;;;;;;;-148.88;100.00;75687.84;5055204;28;19909;-76
2022/10/28 04:13:55;;;;;;;;;;;;;;;-148.88;100.00;75691.91;5056669;28;19955;-76
2022/10/28 04:16:20;;;;;;;;;;;;;;;-148.88;100.00;75689.88;5056325;28;20278;-76
2022/10/28 04:18:45;;;;;;;;;;;;;;;-148.88;100.00;75689.88;5056499;28;19946;-76
2022/10/28 04:21:10;;;;;;;;;;;;;;;-148.88;100.00;75700.03;5056106;28;19923;-78
2022/10/28 04:23:36;;;;;;;;;;;;;;;-148.88;100.00;75704.09;5056740;28;19916;-77
2022/10/28 04:26:03;;;;;;;;;;;;;;;-148.88;100.00;75710.19;5057187;28;19916;-77
2022/10/28 04:28:29;;;;;;;;;;;;;;;-148.88;100.00;75712.22;5057098;28;20443;-77
2022/10/28 04:30:54;;;;;;;;;;;;;;;-148.88;100.00;75712.22;5057005;28;19964;-77
2022/10/28 04:33:19;;;;;;;;;;;;;;;-148.88;100.00;75714.25;5056113;28;19908;-76
2022/10/28 04:35:47;;;;;;;;;;;;;;;-148.88;100.00;75720.34;5055915;28;19912;-76
2022/10/28 04:38:14;;;;;;;;;;;;;;;-148.88;100.00;75726.44;5054547;28;19970;-76
2022/10/28 04:40:40;;;;;;;;;;;;;;;-148.88;100.00;75724.41;5055754;28;20011;-76
2022/10/28 04:43:06;;;;;;;;;;;;;;;-148.88;100.00;75734.56;5038351;28;19912;-76
2022/10/28 04:45:32;;;;;;;;;;;;;;;-148.88;100.00;75728.47;5056139;28;19952;-76
2022/10/28 04:47:58;;;;;;;;;;;;;;;-148.88;100.00;75728.47;5055974;28;19963;-76
2022/10/28 04:50:23;;;;;;;;;;;;;;;-148.88;100.00;75730.50;5055656;28;20342;-76
2022/10/28 04:52:48;;;;;;;;;;;;;;;-148.88;100.00;75730.50;5055793;28;19908;-76
2022/10/28 04:55:14;;;;;;;;;;;;;;;-148.88;100.00;75728.47;5055649;28;19958;-76
2022/10/28 04:57:41;;;;;;;;;;;;;;;-148.88;100.00;75724.41;5055739;28;19912;-76
2022/10/28 05:00:10;;;;;;;;;;;;;;;-148.88;100.00;75720.34;5054245;28;19916;-76
2022/10/28 05:02:36;;;;;;;;;;;;;;;-148.88;100.00;75724.41;5055354;28;19936;-76
2022/10/28 05:05:04;;;;;;;;;;;;;;;-148.88;100.00;75718.31;5055634;28;19909;-76
2022/10/28 05:07:29;;;;;;;;;;;;;;;-148.88;100.00;75714.25;5055265;28;19912;-76
2022/10/28 05:09:55;;;;;;;;;;;;;;;-148.88;100.00;75708.16;5054359;28;20303;-76
2022/10/28 05:12:20;;;;;;;;;;;;;;;-148.88;100.00;75698.00;5055264;28;19962;-75
2022/10/28 05:14:47;;;;;;;;;;;;;;;-148.88;100.00;75687.84;5055710;28;19915;-78
2022/10/28 05:17:12;;;;;;;;;;;;;;;-148.88;100.00;75695.97;5055020;28;19919;-76
2022/10/28 05:19:37;;;;;;;;;;;;;;;-148.88;100.00;75700.03;5053631;28;19917;-76
2022/10/28 05:22:03;;;;;;;;;;;;;;;-148.88;100.00;75693.94;5054978;28;19954;-76
2022/10/28 05:24:28;;;;;;;;;;;;;;;-148.88;100.00;75700.03;5055125;28;20399;-76
2022/10/28 05:26:53;;;;;;;;;;;;;;;-148.88;100.00;75706.13;5055000;28;19908;-76
2022/10/28 05:29:19;;;;;;;;;;;;;;;-148.88;100.00;75700.03;5053602;28;19909;-76
2022/10/28 05:31:44;;;;;;;;;;;;;;;-148.88;100.00;75698.00;5054788;28;19930;-76
2022/10/28 05:34:10;;;;;;;;;;;;;;;-148.88;100.00;75693.94;5054875;28;20469;-76
2022/10/28 05:36:35;;;;;;;;;;;;;;;-148.88;100.00;75687.84;5054869;28;19915;-76
2022/10/28 05:39:00;;;;;;;;;;;;;;;-148.88;100.00;75681.75;5054634;28;19912;-76
2022/10/28 05:41:25;;;;;;;;;;;;;;;-148.88;100.00;75669.56;5055209;28;19908;-76
2022/10/28 05:43:51;;;;;;;;;;;;;;;-148.88;100.00;75659.41;5054900;28;19912;-76
2022/10/28 05:46:17;;;;;;;;;;;;;;;-148.88;100.00;75663.47;5054606;28;19932;-76
2022/10/28 05:48:42;;;;;;;;;;;;;;;-148.88;100.00;75657.38;5054725;28;20314;-76
2022/10/28 05:51:07;;;;;;;;;;;;;;;-148.88;100.00;75657.38;5054249;28;19996;-76
2022/10/28 05:53:32;;;;;;;;;;;;;;;-148.88;100.00;75659.41;5054265;28;20275;-76
2022/10/28 05:55:57;;;;;;;;;;;;;;;-148.88;100.00;75667.53;5054528;28;19909;-76
2022/10/28 05:58:23;;;;;;;;;;;;;;;-148.88;100.00;75673.63;5052692;28;19955;-76
2022/10/28 06:00:48;;;;;;;;;;;;;;;-148.88;100.00;75683.78;5054040;28;20382;-76
2022/10/28 06:03:13;;;;;;;;;;;;;;;-148.88;100.00;75683.78;5054091;28;20395;-76
2022/10/28 06:05:41;;;;;;;;;;;;;;;-148.88;100.00;75683.78;5053747;28;19909;-76
2022/10/28 06:08:07;;;;;;;;;;;;;;;-148.88;100.00;75687.84;5052500;28;19909;-76
2022/10/28 06:10:32;;;;;;;;;;;;;;;-148.88;100.00;75700.03;5053733;28;19923;-76
2022/10/28 06:12:58;;;;;;;;;;;;;;;-148.88;100.00;75706.13;5052495;28;19908;-76
2022/10/28 06:15:26;;;;;;;;;;;;;;;-148.88;100.00;75712.22;5053755;28;20439;-76
2022/10/28 06:17:51;;;;;;;;;;;;;;;-148.88;100.00;75716.28;5054194;28;19948;-76
2022/10/28 06:20:17;;;;;;;;;;;;;;;-148.88;100.00;75724.41;5053516;28;19966;-76
2022/10/28 06:22:49;;;;;;;;;;;;;;;-148.88;100.00;75744.72;5053328;28;19909;-76
2022/10/28 06:25:14;;;;;;;;;;;;;;;-148.88;100.00;75748.78;5053323;28;19908;-76
2022/10/28 06:27:40;;;;;;;;;;;;;;;-148.88;100.00;75748.78;5053405;28;19909;-76
2022/10/28 06:30:05;;;;;;;;;;;;;;;-148.88;100.00;75760.97;5052736;28;19916;-76
2022/10/28 06:32:30;;;;;;;;;;;;;;;-148.88;100.00;75765.03;5053067;28;19908;-76
2022/10/28 06:34:56;;;;;;;;;;;;;;;-148.88;100.00;75765.03;5052974;28;19912;-76
2022/10/28 06:37:21;;;;;;;;;;;;;;;-148.88;100.00;75765.03;5052974;28;19912;-76
2022/10/28 06:39:50;;;;;;;;;;;;;;;-148.88;100.00;75760.97;5053051;28;20290;-76
2022/10/28 06:42:15;;;;;;;;;;;;;;;-148.88;100.00;75765.03;5052112;28;19951;-76
2022/10/28 06:44:40;;;;;;;;;;;;;;;-148.88;100.00;75765.03;5052888;28;19948;-76
2022/10/28 06:47:05;;;;;;;;;;;;;;;-148.88;100.00;75767.06;5052858;28;19909;-76
2022/10/28 06:49:30;;;;;;;;;;;;;;;-148.88;100.00;75767.06;5052690;28;19909;-76
2022/10/28 06:51:56;;;;;;;;;;;;;;;-148.88;100.00;75752.84;5052508;28;19920;-76
2022/10/28 06:54:21;;;;;;;;;;;;;;;-148.88;100.00;75756.91;5052591;28;19908;-76
2022/10/28 06:56:46;;;;;;;;;;;;;;;-148.88;100.00;75748.78;5053024;28;19909;-76
2022/10/28 06:59:11;;;;;;;;;;;;;;;-148.88;100.00;75742.69;5052625;28;19908;-76
2022/10/28 07:01:36;;;;;;;;;;;;;;;-148.88;100.00;75736.59;5052769;28;19909;-76
2022/10/28 07:04:02;;;;;;;;;;;;;;;-148.88;100.00;75734.56;5052715;28;19915;-76
2022/10/28 07:06:27;;;;;;;;;;;;;;;-148.88;100.00;75728.47;5052711;28;19909;-76
2022/10/28 07:08:52;;;;;;;;;;;;;;;-148.88;100.00;75728.47;5052999;28;19915;-76
2022/10/28 07:11:17;;;;;;;;;;;;;;;-148.88;100.00;75712.22;5053123;28;19908;-76
2022/10/28 07:13:43;;;;;;;;;;;;;;;-148.88;100.00;75712.22;5053216;28;19909;-76
2022/10/28 07:16:08;;;;;;;;;;;;;;;-148.88;100.00;75704.09;5052725;28;19909;-76
2022/10/28 07:18:33;;;;;;;;;;;;;;;-148.88;100.00;75687.84;5051090;28;20011;-76
2022/10/28 07:20:59;;;;;;;;;;;;;;;-148.88;100.00;75675.66;5052309;28;19912;-76
2022/10/28 07:23:24;;;;;;;;;;;;;;;-148.88;100.00;75671.59;5052311;28;19909;-76
2022/10/28 07:25:53;;;;;;;;;;;;;;;-148.88;100.00;75665.50;5052390;28;19909;-76
2022/10/28 07:28:19;;;;;;;;;;;;;;;-148.88;100.00;75659.41;5052638;28;20006;-76
2022/10/28 07:30:44;;;;;;;;;;;;;;;-148.88;100.00;75647.22;5052275;28;19909;-76
2022/10/28 07:33:09;;;;;;;;;;;;;;;-148.88;100.00;75635.03;5052377;28;19978;-76
2022/10/28 07:35:34;;;;;;;;;;;;;;;-148.88;99.36;75635.03;5052290;28;19940;-76
2022/10/28 07:38:00;;;;;;;;;;;;;;;-148.88;99.32;75626.91;5052427;28;19913;-76
2022/10/28 07:40:25;;;;;;;;;;;;;;;-148.88;98.79;75614.72;5053875;28;19916;-76
2022/10/28 07:42:50;;;;;;;;;;;;;;;-148.88;98.37;75606.59;5056602;28;19992;-76
2022/10/28 07:45:16;;;;;;;;;;;;;;;-148.88;98.21;75598.47;5055020;28;19909;-76
2022/10/28 07:47:41;;;;;;;;;;;;;;;-148.88;98.47;75594.44;5056299;28;20004;-76
2022/10/28 07:50:07;;;;;;;;;;;;;;;-148.88;98.92;75594.44;5056497;28;19909;-76
2022/10/28 07:52:33;;;;;;;;;;;;;;;-148.88;99.18;75588.34;5056195;28;19913;-76
2022/10/28 07:54:59;;;;;;;;;;;;;;;-148.88;99.42;75580.22;5056305;28;19916;-76
2022/10/28 07:57:24;;;;;;;;;;;;;;;-148.88;99.36;75580.22;5055047;28;19913;-76
2022/10/28 07:59:49;;;;;;;;;;;;;;;-148.88;99.42;75578.19;5056153;28;20401;-76
2022/10/28 08:02:19;;;;;;;;;;;;;;;-148.88;99.62;75570.03;5056326;28;19920;-76
2022/10/28 08:04:44;;;;;;;;;;;;;;;-148.88;100.00;75559.91;5054992;28;19909;-76
2022/10/28 08:07:10;;;;;;;;;;;;;;;-148.88;100.00;75551.78;5056535;28;20002;-76
2022/10/28 08:09:35;;;;;;;;;;;;;;;-148.88;100.00;75539.59;5056049;28;19919;-76
2022/10/28 08:12:00;;;;;;;;;;;;;;;-148.88;100.00;75533.50;5055756;28;20318;-76
2022/10/28 08:14:25;;;;;;;;;;;;;;;-148.88;98.92;75517.25;5054376;28;19940;-76
2022/10/28 08:16:50;;;;;;;;;;;;;;;-148.88;98.07;75480.69;5055729;28;20265;-76
2022/10/28 08:19:16;;;;;;;;;;;;;;;-148.88;95.28;75456.31;5055563;28;20277;-76
2022/10/28 08:21:41;;;;;;;;;;;;;;;-148.88;94.94;75436.00;5055604;28;19909;-76
2022/10/28 08:24:06;;;;;;;;;;;;;;;-148.88;93.29;75405.53;5055593;28;19915;-76
2022/10/28 08:26:31;;;;;;;;;;;;;;;-148.88;90.59;75381.16;5055529;28;19931;-76
2022/10/28 08:28:57;;;;;;;;;;;;;;;-148.88;89.64;75362.88;5055489;28;19909;-76
2022/10/28 08:31:22;;;;;;;;;;;;;;;-148.88;90.25;75352.72;5055424;28;19935;-76
2022/10/28 08:33:47;;;;;;;;;;;;;;;-148.88;89.99;75330.38;5055383;28;19909;-76
2022/10/28 08:36:14;;;;;;;;;;;;;;;-148.88;89.25;75320.22;5055476;28;19915;-76
2022/10/28 08:38:39;;;;;;;;;;;;;;;-148.88;86.45;75287.72;5055677;28;20283;-76
2022/10/28 08:41:07;;;;;;;;;;;;;;;-148.88;85.05;75261.34;5053864;28;20374;-76
2022/10/28 08:43:32;;;;;;;;;;;;;;;-148.88;81.52;75210.56;5055230;28;19943;-77
2022/10/28 08:45:58;;;;;;;;;;;;;;;-148.88;80.44;75196.34;5055163;28;20388;-76
2022/10/28 08:48:30;;;;;;;;;;;;;;;-148.88;81.64;75182.13;5055125;28;19921;-77
2022/10/28 08:51:00;;;;;;;;;;;;;;;-148.88;78.00;75149.63;5053641;28;19974;-76
2022/10/28 08:53:35;;;;;;;;;;;;;;;-148.88;76.05;75131.34;5054538;28;19908;-76
2022/10/28 08:56:13;;;;;;;;;;;;;;;-148.88;76.12;75113.06;5055466;28;20496;-76
2022/10/28 08:58:38;;;;;;;;;;;;;;;-148.88;74.85;75094.81;5053986;28;19920;-76
2022/10/28 09:01:04;;;;;;;;;;;;;;;-148.88;73.83;75080.59;5055241;28;19908;-76
2022/10/28 09:03:36;;;;;;;;;;;;;;;-148.88;73.92;75074.50;5055030;28;20341;-76
2022/10/28 09:06:03;;;;;;;;;;;;;;;-148.88;73.93;75062.31;5055057;28;19940;-76
2022/10/28 09:08:42;;;;;;;;;;;;;;;-148.88;74.85;75064.34;5054660;28;19909;-76
2022/10/28 09:11:13;;;;;;;;;;;;;;;-148.88;73.29;75056.22;5054581;28;20000;-76
2022/10/28 09:13:47;;;;;;;;;;;;;;;-148.88;73.37;75048.09;5054627;28;19995;-76
2022/10/28 09:16:31;;;;;;;;;;;;;;;-148.88;72.37;75033.88;5054636;28;19908;-76
2022/10/28 09:18:57;;;;;;;;;;;;;;;-148.88;73.06;75031.84;5054744;28;19917;-76
2022/10/28 09:21:23;;;;;;;;;;;;;;;-148.88;74.11;75021.69;5054531;28;19981;-76
2022/10/28 09:23:53;;;;;;;;;;;;;;;-148.88;73.01;75021.69;5054733;28;19909;-76
2022/10/28 09:26:30;;;;;;;;;;;;;;;-148.88;74.02;75021.69;5054689;28;19909;-77
2022/10/28 09:28:58;;;;;;;;;;;;;;;-148.88;72.65;75013.56;5054436;28;20018;-76
2022/10/28 09:31:34;;;;;;;;;;;;;;;-148.88;71.92;75009.50;5054409;28;19959;-76
2022/10/28 09:34:12;;;;;;;;;;;;;;;-148.88;71.78;74989.19;5054300;28;19995;-76
2022/10/28 09:36:42;;;;;;;;;;;;;;;-148.88;71.02;74985.13;5054314;28;19948;-76
2022/10/28 09:39:15;;;;;;;;;;;;;;;-148.88;71.91;74968.88;5054479;28;20323;-76
2022/10/28 09:41:42;;;;;;;;;;;;;;;-148.88;70.75;74966.84;5054371;28;19952;-76
2022/10/28 09:44:25;;;;;;;;;;;;;;;-148.88;72.55;74956.69;5054315;28;19916;-76
2022/10/28 09:46:54;;;;;;;;;;;;;;;-148.88;70.63;74952.63;5054234;28;19908;-76
2022/10/28 09:49:28;;;;;;;;;;;;;;;-148.88;71.02;74948.56;5054100;28;19913;-76
2022/10/28 09:51:54;;;;;;;;;;;;;;;-148.88;70.27;74948.56;5054286;28;19908;-76
2022/10/28 09:54:23;;;;;;;;;;;;;;;-148.88;69.35;74944.53;5054259;28;19916;-76
2022/10/28 09:56:50;;;;;;;;;;;;;;;-148.88;70.98;74950.59;5054821;28;20363;-76
2022/10/28 09:59:15;;;;;;;;;;;;;;;-148.88;70.22;74956.69;5053853;28;19920;-76
2022/10/28 10:01:41;;;;;;;;;;;;;;;-148.88;71.08;74952.63;5053836;28;19912;-76
2022/10/28 10:04:17;;;;;;;;;;;;;;;-148.88;71.83;74932.34;5051960;28;19964;-76
2022/10/28 10:06:44;;;;;;;;;;;;;;;-148.88;69.24;74924.22;5053742;28;19909;-76
2022/10/28 10:09:26;;;;;;;;;;;;;;;-148.88;69.93;74901.88;5053641;28;19909;-76
2022/10/28 10:11:54;;;;;;;;;;;;;;;-148.88;69.22;74879.53;5053652;28;20394;-76
2022/10/28 10:14:26;;;;;;;;;;;;;;;-148.88;69.43;74863.28;5053570;28;19908;-76
2022/10/28 10:17:39;;;;;;;;;;;;;;;-148.88;67.06;74845.00;5104061;22;19921;-85
2022/10/28 10:20:18;;;;;;;;;;;;;;;-148.88;65.52;74828.75;5076046;28;19913;-85
2022/10/28 10:22:45;;;;;;;;;;;;;;;-148.88;65.54;74790.19;5077118;28;19918;-85
2022/10/28 10:25:31;;;;;;;;;;;;;;;-148.88;65.65;74786.13;5075121;28;19958;-85
2022/10/28 10:28:14;;;;;;;;;;;;;;;-148.88;64.81;74769.88;5073155;28;19908;-86
2022/10/28 10:30:57;;;;;;;;;;;;;;;-148.88;65.23;74753.63;5055535;28;19923;-85
2022/10/28 10:33:31;;;;;;;;;;;;;;;-148.88;66.40;74741.44;5056451;28;19955;-85
2022/10/28 10:36:08;;;;;;;;;;;;;;;-148.88;65.98;74717.06;5054269;28;20275;-89
2022/10/28 10:38:34;;;;;;;;;;;;;;;-148.88;64.68;74721.13;5054245;28;19962;-86
2022/10/28 10:40:59;;;;;;;;;;;;;;;-148.88;64.42;74700.84;5054569;28;19912;-84
2022/10/28 10:43:32;;;;;;;;;;;;;;;-148.88;61.95;74700.84;5054503;28;19916;-85
2022/10/28 10:46:17;;;;;;;;;;;;;;;-148.88;62.95;74688.66;5052885;28;19920;-88
2022/10/28 10:49:08;;;;;;;;;;;;;;;-148.88;63.67;74670.38;5053333;28;19912;-85
2022/10/28 10:51:33;;;;;;;;;;;;;;;-148.88;62.72;74668.34;5053291;28;19924;-85
2022/10/28 10:54:16;;;;;;;;;;;;;;;-148.88;61.97;74664.28;5053030;28;19909;-84
2022/10/28 10:56:44;;;;;;;;;;;;;;;-148.88;62.30;74684.59;5053267;28;19908;-85
2022/10/28 10:59:27;;;;;;;;;;;;;;;-148.88;64.43;74696.78;5052836;28;19919;-86
2022/10/28 11:01:59;;;;;;;;;;;;;;;-148.88;63.99;74686.63;5053627;28;19996;-84
2022/10/28 11:04:29;;;;;;;;;;;;;;;-148.88;63.91;74684.59;5054064;28;19913;-85
2022/10/28 11:06:57;;;;;;;;;;;;;;;-148.88;64.14;74680.53;5052603;28;20326;-84
2022/10/28 11:09:38;;;;;;;;;;;;;;;-148.88;63.21;74660.22;5053554;28;19987;-85
2022/10/28 11:12:25;;;;;;;;;;;;;;;-148.88;62.69;74676.47;5052965;28;19917;-85
2022/10/28 11:15:05;;;;;;;;;;;;;;;-148.88;62.38;74688.66;5053634;28;19909;-85
2022/10/28 11:17:52;;;;;;;;;;;;;;;-148.88;63.70;74708.94;5052785;28;20378;-85
2022/10/28 11:20:29;;;;;;;;;;;;;;;-148.88;64.52;74708.94;5054142;28;19908;-85
2022/10/28 11:22:58;;;;;;;;;;;;;;;-148.88;64.88;74721.13;5054279;28;19915;-84
2022/10/28 11:25:36;;;;;;;;;;;;;;;-148.88;64.88;74708.94;5053407;28;19997;-85
2022/10/28 11:28:10;;;;;;;;;;;;;;;-148.88;64.38;74713.00;5054061;28;20312;-85
2022/10/28 11:30:38;;;;;;;;;;;;;;;-148.88;65.89;74702.84;5054425;28;19951;-84
2022/10/28 11:33:20;;;;;;;;;;;;;;;-148.88;64.57;74692.72;5053233;28;19915;-85
2022/10/28 11:35:50;;;;;;;;;;;;;;;-148.88;65.52;74672.41;5052654;28;19963;-85
2022/10/28 11:38:35;;;;;;;;;;;;;;;-148.88;64.32;74662.25;5053847;28;19913;-85
2022/10/28 11:41:01;;;;;;;;;;;;;;;-148.88;64.43;74648.03;5058943;28;19916;-85
2022/10/28 11:43:48;;;;;;;;;;;;;;;-148.88;64.86;74631.78;5053923;28;19909;-85
2022/10/28 11:46:32;;;;;;;;;;;;;;;-148.88;63.54;74631.78;5052354;28;19909;-86
2022/10/28 11:49:03;;;;;;;;;;;;;;;-148.88;65.77;74611.47;5052588;28;19917;-85
2022/10/28 11:51:34;;;;;;;;;;;;;;;-148.88;63.35;74597.25;5052620;28;19962;-85
2022/10/28 11:54:20;;;;;;;;;;;;;;;-148.88;61.67;74570.88;5059565;28;19908;-86
2022/10/28 11:56:57;;;;;;;;;;;;;;;-148.88;59.26;74558.69;5040658;28;19908;-86
2022/10/28 11:59:41;;;;;;;;;;;;;;;-148.88;60.18;74550.56;5054931;28;19939;-86
2022/10/28 12:02:09;;;;;;;;;;;;;;;-148.88;60.02;74524.16;5052805;28;19909;-86
2022/10/28 12:04:47;;;;;;;;;;;;;;;-148.88;59.83;74501.81;5052536;28;20375;-87
2022/10/28 12:07:24;;;;;;;;;;;;;;;-148.88;59.11;74493.72;5052265;28;19916;-86
2022/10/28 12:09:59;;;;;;;;;;;;;;;-148.88;58.19;74507.91;5052412;28;19916;-86
2022/10/28 12:12:31;;;;;;;;;;;;;;;-148.88;58.25;74489.66;5053139;28;19912;-84
2022/10/28 12:15:09;;;;;;;;;;;;;;;-148.88;57.25;74507.91;5052731;28;20367;-86
2022/10/28 12:17:37;;;;;;;;;;;;;;;-148.88;58.31;74514.00;5051880;28;19928;-85
2022/10/28 12:20:08;;;;;;;;;;;;;;;-148.88;58.41;74538.38;5051977;28;19916;-84
2022/10/28 12:22:48;;;;;;;;;;;;;;;-148.88;58.91;74542.44;5054315;28;19908;-84
2022/10/28 12:25:22;;;;;;;;;;;;;;;-148.88;59.10;74546.50;5052975;28;19966;-84
2022/10/28 12:27:54;;;;;;;;;;;;;;;-148.88;58.93;74546.50;5053771;28;19955;-84
2022/10/28 12:30:24;;;;;;;;;;;;;;;-148.88;59.88;74554.63;5055994;28;20271;-85